sensor_id;sensor_type;location;lat;lon;timestamp;P1;durP1;ratioP1;P2;durP2;ratioP2
34896;SDS011;43407;51.828;-2.298;2023-07-16T00:00:14;19.27;;;3.75;;
34896;SDS011;43407;51.828;-2.298;2023-07-16T00:02:42;20.45;;;4.22;;
34896;SDS011;43407;51.828;-2.298;2023-07-16T00:05:08;12.32;;;3.58;;
34896;SDS011;43407;51.828;-2.298;2023-07-16T00:07:34;11.65;;;3.67;;
34896;SDS011;43407;51.828;-2.298;2023-07-16T00:09:59;15.10;;;3.72;;
34896;SDS011;43407;51.828;-2.298;2023-07-16T00:12:25;15.77;;;4.07;;
34896;SDS011;43407;51.828;-2.298;2023-07-16T00:14:50;13.82;;;4.20;;
34896;SDS011;43407;51.828;-2.298;2023-07-16T00:17:16;15.35;;;3.83;;
34896;SDS011;43407;51.828;-2.298;2023-07-16T00:19:42;17.73;;;4.07;;
34896;SDS011;43407;51.828;-2.298;2023-07-16T00:22:08;13.77;;;3.75;;
34896;SDS011;43407;51.828;-2.298;2023-07-16T00:24:33;16.83;;;4.10;;
34896;SDS011;43407;51.828;-2.298;2023-07-16T00:26:59;21.45;;;3.80;;
34896;SDS011;43407;51.828;-2.298;2023-07-16T00:29:24;25.92;;;4.55;;
34896;SDS011;43407;51.828;-2.298;2023-07-16T00:31:50;17.38;;;4.53;;
34896;SDS011;43407;51.828;-2.298;2023-07-16T00:34:15;20.20;;;4.25;;
34896;SDS011;43407;51.828;-2.298;2023-07-16T00:36:41;16.45;;;4.13;;
34896;SDS011;43407;51.828;-2.298;2023-07-16T00:39:06;16.42;;;3.85;;
34896;SDS011;43407;51.828;-2.298;2023-07-16T00:41:32;16.60;;;4.63;;
34896;SDS011;43407;51.828;-2.298;2023-07-16T00:43:58;17.48;;;4.07;;
34896;SDS011;43407;51.828;-2.298;2023-07-16T00:46:24;14.35;;;3.78;;
34896;SDS011;43407;51.828;-2.298;2023-07-16T00:48:49;16.55;;;4.05;;
34896;SDS011;43407;51.828;-2.298;2023-07-16T00:51:15;18.95;;;4.15;;
34896;SDS011;43407;51.828;-2.298;2023-07-16T00:53:41;15.55;;;3.67;;
34896;SDS011;43407;51.828;-2.298;2023-07-16T00:56:08;17.92;;;4.43;;
34896;SDS011;43407;51.828;-2.298;2023-07-16T00:58:34;13.32;;;3.33;;
34896;SDS011;43407;51.828;-2.298;2023-07-16T01:00:59;18.27;;;4.10;;
34896;SDS011;43407;51.828;-2.298;2023-07-16T01:03:25;11.85;;;3.85;;
34896;SDS011;43407;51.828;-2.298;2023-07-16T01:08:35;11.82;;;3.53;;
34896;SDS011;43407;51.828;-2.298;2023-07-16T01:11:05;15.65;;;3.75;;
34896;SDS011;43407;51.828;-2.298;2023-07-16T01:13:31;16.60;;;3.65;;
34896;SDS011;43407;51.828;-2.298;2023-07-16T01:15:57;14.25;;;3.88;;
34896;SDS011;43407;51.828;-2.298;2023-07-16T01:18:22;14.02;;;3.67;;
34896;SDS011;43407;51.828;-2.298;2023-07-16T01:20:48;17.90;;;3.70;;
34896;SDS011;43407;51.828;-2.298;2023-07-16T01:28:44;14.95;;;3.42;;
34896;SDS011;43407;51.828;-2.298;2023-07-16T01:31:15;15.32;;;3.80;;
34896;SDS011;43407;51.828;-2.298;2023-07-16T01:33:41;19.10;;;4.68;;
34896;SDS011;43407;51.828;-2.298;2023-07-16T01:36:07;12.65;;;3.08;;
34896;SDS011;43407;51.828;-2.298;2023-07-16T01:38:33;17.55;;;3.60;;
34896;SDS011;43407;51.828;-2.298;2023-07-16T01:41:00;11.27;;;3.38;;
34896;SDS011;43407;51.828;-2.298;2023-07-16T01:43:25;14.25;;;2.75;;
34896;SDS011;43407;51.828;-2.298;2023-07-16T01:45:51;12.95;;;3.40;;
34896;SDS011;43407;51.828;-2.298;2023-07-16T01:48:33;11.77;;;3.15;;
34896;SDS011;43407;51.828;-2.298;2023-07-16T01:50:59;10.30;;;2.90;;
34896;SDS011;43407;51.828;-2.298;2023-07-16T01:53:25;8.55;;;2.88;;
34896;SDS011;43407;51.828;-2.298;2023-07-16T01:55:51;14.98;;;2.92;;
34896;SDS011;43407;51.828;-2.298;2023-07-16T01:58:17;12.77;;;3.15;;
34896;SDS011;43407;51.828;-2.298;2023-07-16T02:00:42;8.40;;;2.55;;
34896;SDS011;43407;51.828;-2.298;2023-07-16T02:03:08;9.38;;;3.25;;
34896;SDS011;43407;51.828;-2.298;2023-07-16T02:05:34;10.90;;;3.20;;
34896;SDS011;43407;51.828;-2.298;2023-07-16T02:07:59;9.13;;;2.97;;
34896;SDS011;43407;51.828;-2.298;2023-07-16T02:10:25;17.98;;;3.30;;
34896;SDS011;43407;51.828;-2.298;2023-07-16T02:12:51;11.23;;;3.53;;
34896;SDS011;43407;51.828;-2.298;2023-07-16T02:15:16;10.50;;;3.03;;
34896;SDS011;43407;51.828;-2.298;2023-07-16T02:17:43;9.05;;;2.97;;
34896;SDS011;43407;51.828;-2.298;2023-07-16T02:20:09;10.95;;;3.05;;
34896;SDS011;43407;51.828;-2.298;2023-07-16T02:22:37;11.70;;;3.10;;
34896;SDS011;43407;51.828;-2.298;2023-07-16T02:25:03;10.65;;;3.20;;
34896;SDS011;43407;51.828;-2.298;2023-07-16T02:27:29;13.82;;;3.47;;
34896;SDS011;43407;51.828;-2.298;2023-07-16T02:29:55;16.35;;;3.55;;
34896;SDS011;43407;51.828;-2.298;2023-07-16T02:32:20;9.43;;;3.20;;
34896;SDS011;43407;51.828;-2.298;2023-07-16T02:34:46;14.15;;;3.80;;
34896;SDS011;43407;51.828;-2.298;2023-07-16T02:37:12;11.00;;;3.53;;
34896;SDS011;43407;51.828;-2.298;2023-07-16T02:39:44;12.52;;;3.38;;
34896;SDS011;43407;51.828;-2.298;2023-07-16T02:42:11;10.02;;;3.10;;
34896;SDS011;43407;51.828;-2.298;2023-07-16T02:44:37;11.73;;;3.22;;
34896;SDS011;43407;51.828;-2.298;2023-07-16T02:47:07;11.18;;;3.33;;
34896;SDS011;43407;51.828;-2.298;2023-07-16T02:49:32;8.88;;;3.00;;
34896;SDS011;43407;51.828;-2.298;2023-07-16T02:51:58;13.20;;;3.13;;
34896;SDS011;43407;51.828;-2.298;2023-07-16T02:54:23;10.25;;;3.35;;
34896;SDS011;43407;51.828;-2.298;2023-07-16T02:56:49;10.80;;;2.92;;
34896;SDS011;43407;51.828;-2.298;2023-07-16T02:59:15;13.88;;;3.20;;
34896;SDS011;43407;51.828;-2.298;2023-07-16T03:01:40;10.73;;;2.80;;
34896;SDS011;43407;51.828;-2.298;2023-07-16T03:04:06;12.30;;;3.30;;
34896;SDS011;43407;51.828;-2.298;2023-07-16T03:06:31;11.05;;;2.75;;
34896;SDS011;43407;51.828;-2.298;2023-07-16T03:08:57;16.40;;;3.05;;
34896;SDS011;43407;51.828;-2.298;2023-07-16T03:11:22;10.70;;;2.85;;
34896;SDS011;43407;51.828;-2.298;2023-07-16T03:13:49;11.48;;;3.10;;
34896;SDS011;43407;51.828;-2.298;2023-07-16T03:16:15;12.88;;;2.90;;
34896;SDS011;43407;51.828;-2.298;2023-07-16T03:18:40;14.38;;;3.25;;
34896;SDS011;43407;51.828;-2.298;2023-07-16T03:21:06;10.55;;;2.60;;
34896;SDS011;43407;51.828;-2.298;2023-07-16T03:23:31;12.25;;;2.53;;
34896;SDS011;43407;51.828;-2.298;2023-07-16T03:25:57;14.10;;;3.03;;
34896;SDS011;43407;51.828;-2.298;2023-07-16T03:28:22;11.57;;;2.90;;
34896;SDS011;43407;51.828;-2.298;2023-07-16T03:30:48;11.27;;;2.80;;
34896;SDS011;43407;51.828;-2.298;2023-07-16T03:33:15;11.25;;;2.72;;
34896;SDS011;43407;51.828;-2.298;2023-07-16T03:35:47;12.38;;;3.00;;
34896;SDS011;43407;51.828;-2.298;2023-07-16T03:38:13;11.90;;;2.85;;
34896;SDS011;43407;51.828;-2.298;2023-07-16T03:40:39;10.70;;;2.88;;
34896;SDS011;43407;51.828;-2.298;2023-07-16T03:43:08;13.05;;;3.38;;
34896;SDS011;43407;51.828;-2.298;2023-07-16T03:45:33;10.02;;;2.60;;
34896;SDS011;43407;51.828;-2.298;2023-07-16T03:47:59;12.80;;;2.75;;
34896;SDS011;43407;51.828;-2.298;2023-07-16T03:50:24;15.90;;;3.35;;
34896;SDS011;43407;51.828;-2.298;2023-07-16T03:52:50;15.07;;;2.72;;
34896;SDS011;43407;51.828;-2.298;2023-07-16T03:55:16;15.13;;;3.42;;
34896;SDS011;43407;51.828;-2.298;2023-07-16T03:57:41;11.95;;;2.85;;
34896;SDS011;43407;51.828;-2.298;2023-07-16T04:00:07;14.68;;;3.20;;
34896;SDS011;43407;51.828;-2.298;2023-07-16T04:02:35;16.42;;;3.38;;
34896;SDS011;43407;51.828;-2.298;2023-07-16T04:05:01;11.98;;;2.78;;
34896;SDS011;43407;51.828;-2.298;2023-07-16T04:07:27;11.48;;;3.25;;
34896;SDS011;43407;51.828;-2.298;2023-07-16T04:09:52;15.65;;;3.08;;
34896;SDS011;43407;51.828;-2.298;2023-07-16T04:12:18;16.63;;;3.38;;
34896;SDS011;43407;51.828;-2.298;2023-07-16T04:14:43;15.73;;;3.20;;
34896;SDS011;43407;51.828;-2.298;2023-07-16T04:17:09;11.48;;;2.75;;
34896;SDS011;43407;51.828;-2.298;2023-07-16T04:19:35;10.80;;;3.10;;
34896;SDS011;43407;51.828;-2.298;2023-07-16T04:22:01;12.18;;;3.13;;
34896;SDS011;43407;51.828;-2.298;2023-07-16T04:24:26;16.88;;;3.55;;
34896;SDS011;43407;51.828;-2.298;2023-07-16T04:26:53;13.48;;;3.30;;
34896;SDS011;43407;51.828;-2.298;2023-07-16T04:29:19;14.75;;;2.95;;
34896;SDS011;43407;51.828;-2.298;2023-07-16T04:31:44;13.95;;;3.38;;
34896;SDS011;43407;51.828;-2.298;2023-07-16T04:34:10;11.73;;;2.85;;
34896;SDS011;43407;51.828;-2.298;2023-07-16T04:36:35;12.30;;;3.15;;
34896;SDS011;43407;51.828;-2.298;2023-07-16T04:39:01;15.88;;;3.60;;
34896;SDS011;43407;51.828;-2.298;2023-07-16T04:41:27;13.57;;;3.45;;
34896;SDS011;43407;51.828;-2.298;2023-07-16T04:43:52;13.32;;;2.55;;
34896;SDS011;43407;51.828;-2.298;2023-07-16T04:46:18;13.23;;;3.05;;
34896;SDS011;43407;51.828;-2.298;2023-07-16T04:48:43;11.57;;;2.97;;
34896;SDS011;43407;51.828;-2.298;2023-07-16T04:51:09;13.95;;;3.47;;
34896;SDS011;43407;51.828;-2.298;2023-07-16T04:53:35;11.50;;;2.97;;
34896;SDS011;43407;51.828;-2.298;2023-07-16T04:56:00;11.95;;;2.83;;
34896;SDS011;43407;51.828;-2.298;2023-07-16T04:58:26;10.00;;;2.88;;
34896;SDS011;43407;51.828;-2.298;2023-07-16T05:00:51;14.40;;;3.30;;
34896;SDS011;43407;51.828;-2.298;2023-07-16T05:03:17;15.35;;;3.40;;
34896;SDS011;43407;51.828;-2.298;2023-07-16T05:05:43;16.17;;;3.28;;
34896;SDS011;43407;51.828;-2.298;2023-07-16T05:08:08;12.77;;;3.30;;
34896;SDS011;43407;51.828;-2.298;2023-07-16T05:10:34;21.45;;;3.47;;
34896;SDS011;43407;51.828;-2.298;2023-07-16T05:12:59;16.27;;;3.45;;
34896;SDS011;43407;51.828;-2.298;2023-07-16T05:15:25;10.27;;;2.88;;
34896;SDS011;43407;51.828;-2.298;2023-07-16T05:17:51;10.07;;;2.78;;
34896;SDS011;43407;51.828;-2.298;2023-07-16T05:20:16;8.93;;;2.78;;
34896;SDS011;43407;51.828;-2.298;2023-07-16T05:22:42;10.50;;;2.90;;
34896;SDS011;43407;51.828;-2.298;2023-07-16T05:25:08;9.27;;;2.70;;
34896;SDS011;43407;51.828;-2.298;2023-07-16T05:27:33;12.65;;;3.00;;
34896;SDS011;43407;51.828;-2.298;2023-07-16T05:30:00;13.55;;;3.25;;
34896;SDS011;43407;51.828;-2.298;2023-07-16T05:32:26;10.50;;;2.80;;
34896;SDS011;43407;51.828;-2.298;2023-07-16T05:34:51;13.52;;;2.90;;
34896;SDS011;43407;51.828;-2.298;2023-07-16T05:37:17;10.80;;;2.95;;
34896;SDS011;43407;51.828;-2.298;2023-07-16T05:39:42;7.40;;;2.63;;
34896;SDS011;43407;51.828;-2.298;2023-07-16T05:42:08;9.15;;;2.40;;
34896;SDS011;43407;51.828;-2.298;2023-07-16T05:44:34;10.30;;;2.70;;
34896;SDS011;43407;51.828;-2.298;2023-07-16T05:47:00;8.10;;;2.78;;
34896;SDS011;43407;51.828;-2.298;2023-07-16T05:49:26;7.72;;;2.47;;
34896;SDS011;43407;51.828;-2.298;2023-07-16T05:51:51;8.02;;;2.75;;
34896;SDS011;43407;51.828;-2.298;2023-07-16T05:54:17;9.25;;;2.70;;
34896;SDS011;43407;51.828;-2.298;2023-07-16T05:56:43;7.82;;;2.70;;
34896;SDS011;43407;51.828;-2.298;2023-07-16T05:59:08;8.27;;;2.20;;
34896;SDS011;43407;51.828;-2.298;2023-07-16T06:01:35;6.28;;;2.15;;
34896;SDS011;43407;51.828;-2.298;2023-07-16T06:04:00;9.25;;;2.97;;
34896;SDS011;43407;51.828;-2.298;2023-07-16T06:06:27;7.63;;;2.38;;
34896;SDS011;43407;51.828;-2.298;2023-07-16T06:08:53;9.32;;;2.45;;
34896;SDS011;43407;51.828;-2.298;2023-07-16T06:11:18;6.00;;;2.25;;
34896;SDS011;43407;51.828;-2.298;2023-07-16T06:13:44;6.25;;;1.95;;
34896;SDS011;43407;51.828;-2.298;2023-07-16T06:16:10;9.18;;;2.33;;
34896;SDS011;43407;51.828;-2.298;2023-07-16T06:18:35;5.75;;;1.90;;
34896;SDS011;43407;51.828;-2.298;2023-07-16T06:21:01;6.70;;;2.17;;
34896;SDS011;43407;51.828;-2.298;2023-07-16T06:23:26;5.22;;;2.22;;
34896;SDS011;43407;51.828;-2.298;2023-07-16T06:25:55;8.25;;;2.35;;
34896;SDS011;43407;51.828;-2.298;2023-07-16T06:28:20;7.28;;;2.17;;
34896;SDS011;43407;51.828;-2.298;2023-07-16T06:30:46;6.70;;;1.95;;
34896;SDS011;43407;51.828;-2.298;2023-07-16T06:33:12;6.72;;;2.00;;
34896;SDS011;43407;51.828;-2.298;2023-07-16T06:35:38;7.28;;;2.30;;
34896;SDS011;43407;51.828;-2.298;2023-07-16T06:38:03;7.35;;;2.17;;
34896;SDS011;43407;51.828;-2.298;2023-07-16T06:40:29;7.50;;;2.08;;
34896;SDS011;43407;51.828;-2.298;2023-07-16T06:42:55;4.60;;;1.80;;
34896;SDS011;43407;51.828;-2.298;2023-07-16T06:45:21;6.20;;;2.10;;
34896;SDS011;43407;51.828;-2.298;2023-07-16T06:47:47;8.02;;;2.33;;
34896;SDS011;43407;51.828;-2.298;2023-07-16T06:50:13;7.00;;;1.95;;
34896;SDS011;43407;51.828;-2.298;2023-07-16T06:52:39;6.28;;;1.85;;
34896;SDS011;43407;51.828;-2.298;2023-07-16T06:55:05;6.95;;;2.20;;
34896;SDS011;43407;51.828;-2.298;2023-07-16T06:57:30;7.28;;;2.00;;
34896;SDS011;43407;51.828;-2.298;2023-07-16T06:59:56;5.97;;;1.88;;
34896;SDS011;43407;51.828;-2.298;2023-07-16T07:02:21;6.28;;;2.05;;
34896;SDS011;43407;51.828;-2.298;2023-07-16T07:04:47;5.85;;;2.10;;
34896;SDS011;43407;51.828;-2.298;2023-07-16T07:07:12;5.78;;;2.20;;
34896;SDS011;43407;51.828;-2.298;2023-07-16T07:09:38;10.60;;;2.38;;
34896;SDS011;43407;51.828;-2.298;2023-07-16T07:12:04;7.90;;;1.98;;
34896;SDS011;43407;51.828;-2.298;2023-07-16T07:14:30;9.32;;;2.33;;
34896;SDS011;43407;51.828;-2.298;2023-07-16T07:16:57;8.93;;;2.40;;
34896;SDS011;43407;51.828;-2.298;2023-07-16T07:19:22;6.05;;;1.95;;
34896;SDS011;43407;51.828;-2.298;2023-07-16T07:21:48;7.43;;;2.20;;
34896;SDS011;43407;51.828;-2.298;2023-07-16T07:24:13;7.47;;;2.30;;
34896;SDS011;43407;51.828;-2.298;2023-07-16T07:26:38;5.95;;;1.88;;
34896;SDS011;43407;51.828;-2.298;2023-07-16T07:29:04;4.63;;;1.85;;
34896;SDS011;43407;51.828;-2.298;2023-07-16T07:31:29;5.35;;;1.42;;
34896;SDS011;43407;51.828;-2.298;2023-07-16T07:33:55;6.05;;;1.98;;
34896;SDS011;43407;51.828;-2.298;2023-07-16T07:36:22;6.25;;;2.05;;
34896;SDS011;43407;51.828;-2.298;2023-07-16T07:38:48;6.88;;;1.60;;
34896;SDS011;43407;51.828;-2.298;2023-07-16T07:41:13;6.60;;;2.22;;
34896;SDS011;43407;51.828;-2.298;2023-07-16T07:43:39;7.18;;;2.13;;
34896;SDS011;43407;51.828;-2.298;2023-07-16T07:46:04;4.70;;;2.00;;
34896;SDS011;43407;51.828;-2.298;2023-07-16T07:48:31;5.57;;;1.80;;
34896;SDS011;43407;51.828;-2.298;2023-07-16T07:50:56;4.65;;;1.73;;
34896;SDS011;43407;51.828;-2.298;2023-07-16T07:53:22;5.50;;;2.00;;
34896;SDS011;43407;51.828;-2.298;2023-07-16T07:55:48;4.72;;;1.90;;
34896;SDS011;43407;51.828;-2.298;2023-07-16T07:58:13;4.60;;;1.75;;
34896;SDS011;43407;51.828;-2.298;2023-07-16T08:00:39;4.72;;;1.98;;
34896;SDS011;43407;51.828;-2.298;2023-07-16T08:03:04;4.57;;;1.88;;
34896;SDS011;43407;51.828;-2.298;2023-07-16T08:05:31;4.15;;;1.90;;
34896;SDS011;43407;51.828;-2.298;2023-07-16T08:07:56;5.50;;;2.05;;
34896;SDS011;43407;51.828;-2.298;2023-07-16T08:10:22;7.72;;;2.30;;
34896;SDS011;43407;51.828;-2.298;2023-07-16T08:12:47;3.95;;;1.80;;
34896;SDS011;43407;51.828;-2.298;2023-07-16T08:15:13;4.25;;;1.70;;
34896;SDS011;43407;51.828;-2.298;2023-07-16T08:17:43;3.00;;;1.20;;
34896;SDS011;43407;51.828;-2.298;2023-07-16T08:20:09;4.25;;;1.40;;
34896;SDS011;43407;51.828;-2.298;2023-07-16T08:22:35;3.38;;;1.60;;
34896;SDS011;43407;51.828;-2.298;2023-07-16T08:25:01;2.53;;;1.25;;
34896;SDS011;43407;51.828;-2.298;2023-07-16T08:27:28;2.65;;;1.38;;
34896;SDS011;43407;51.828;-2.298;2023-07-16T08:29:55;3.47;;;1.60;;
34896;SDS011;43407;51.828;-2.298;2023-07-16T08:32:20;4.82;;;1.40;;
34896;SDS011;43407;51.828;-2.298;2023-07-16T08:34:46;2.45;;;1.15;;
34896;SDS011;43407;51.828;-2.298;2023-07-16T08:37:12;1.83;;;1.10;;
34896;SDS011;43407;51.828;-2.298;2023-07-16T08:39:38;2.60;;;1.20;;
34896;SDS011;43407;51.828;-2.298;2023-07-16T08:42:04;2.90;;;1.40;;
34896;SDS011;43407;51.828;-2.298;2023-07-16T08:44:30;3.38;;;1.20;;
34896;SDS011;43407;51.828;-2.298;2023-07-16T08:46:56;3.77;;;1.60;;
34896;SDS011;43407;51.828;-2.298;2023-07-16T08:49:21;3.70;;;1.75;;
34896;SDS011;43407;51.828;-2.298;2023-07-16T08:51:48;4.65;;;1.50;;
34896;SDS011;43407;51.828;-2.298;2023-07-16T08:54:14;2.53;;;1.27;;
34896;SDS011;43407;51.828;-2.298;2023-07-16T08:56:44;2.25;;;1.27;;
34896;SDS011;43407;51.828;-2.298;2023-07-16T08:59:10;2.83;;;1.10;;
34896;SDS011;43407;51.828;-2.298;2023-07-16T09:01:36;3.58;;;1.13;;
34896;SDS011;43407;51.828;-2.298;2023-07-16T09:04:02;2.60;;;1.20;;
34896;SDS011;43407;51.828;-2.298;2023-07-16T09:06:28;3.05;;;1.27;;
34896;SDS011;43407;51.828;-2.298;2023-07-16T09:08:54;3.63;;;1.20;;
34896;SDS011;43407;51.828;-2.298;2023-07-16T09:11:20;4.18;;;1.10;;
34896;SDS011;43407;51.828;-2.298;2023-07-16T09:13:47;2.95;;;1.15;;
34896;SDS011;43407;51.828;-2.298;2023-07-16T09:16:13;2.45;;;0.95;;
34896;SDS011;43407;51.828;-2.298;2023-07-16T09:18:41;1.60;;;0.95;;
34896;SDS011;43407;51.828;-2.298;2023-07-16T09:21:07;1.70;;;0.98;;
34896;SDS011;43407;51.828;-2.298;2023-07-16T09:23:33;2.10;;;1.05;;
34896;SDS011;43407;51.828;-2.298;2023-07-16T09:25:59;1.98;;;1.10;;
34896;SDS011;43407;51.828;-2.298;2023-07-16T09:28:24;1.77;;;1.00;;
34896;SDS011;43407;51.828;-2.298;2023-07-16T09:30:50;2.28;;;0.85;;
34896;SDS011;43407;51.828;-2.298;2023-07-16T09:33:17;1.58;;;0.63;;
34896;SDS011;43407;51.828;-2.298;2023-07-16T09:35:49;1.95;;;0.98;;
34896;SDS011;43407;51.828;-2.298;2023-07-16T09:38:15;1.50;;;0.80;;
34896;SDS011;43407;51.828;-2.298;2023-07-16T09:40:42;1.92;;;0.90;;
34896;SDS011;43407;51.828;-2.298;2023-07-16T09:43:08;3.25;;;1.05;;
34896;SDS011;43407;51.828;-2.298;2023-07-16T09:45:34;3.00;;;1.08;;
34896;SDS011;43407;51.828;-2.298;2023-07-16T09:48:00;1.55;;;0.85;;
34896;SDS011;43407;51.828;-2.298;2023-07-16T09:50:30;2.08;;;0.90;;
34896;SDS011;43407;51.828;-2.298;2023-07-16T09:52:57;2.53;;;1.02;;
34896;SDS011;43407;51.828;-2.298;2023-07-16T09:55:23;1.25;;;0.80;;
34896;SDS011;43407;51.828;-2.298;2023-07-16T09:57:51;3.95;;;1.13;;
34896;SDS011;43407;51.828;-2.298;2023-07-16T10:00:19;1.42;;;0.82;;
34896;SDS011;43407;51.828;-2.298;2023-07-16T10:02:45;3.22;;;0.82;;
34896;SDS011;43407;51.828;-2.298;2023-07-16T10:05:14;2.58;;;0.90;;
34896;SDS011;43407;51.828;-2.298;2023-07-16T10:07:58;2.70;;;1.20;;
34896;SDS011;43407;51.828;-2.298;2023-07-16T10:10:41;3.25;;;1.13;;
34896;SDS011;43407;51.828;-2.298;2023-07-16T10:13:08;2.72;;;0.88;;
34896;SDS011;43407;51.828;-2.298;2023-07-16T10:15:34;3.28;;;1.40;;
34896;SDS011;43407;51.828;-2.298;2023-07-16T10:17:59;4.57;;;1.10;;
34896;SDS011;43407;51.828;-2.298;2023-07-16T10:20:29;3.78;;;1.27;;
34896;SDS011;43407;51.828;-2.298;2023-07-16T10:22:58;3.78;;;1.15;;
34896;SDS011;43407;51.828;-2.298;2023-07-16T10:25:35;3.38;;;1.23;;
34896;SDS011;43407;51.828;-2.298;2023-07-16T10:28:01;1.63;;;1.00;;
34896;SDS011;43407;51.828;-2.298;2023-07-16T10:30:26;3.83;;;1.15;;
34896;SDS011;43407;51.828;-2.298;2023-07-16T10:32:52;5.70;;;0.88;;
34896;SDS011;43407;51.828;-2.298;2023-07-16T10:35:18;2.85;;;1.02;;
34896;SDS011;43407;51.828;-2.298;2023-07-16T10:37:44;1.92;;;0.80;;
34896;SDS011;43407;51.828;-2.298;2023-07-16T10:40:11;1.38;;;0.70;;
34896;SDS011;43407;51.828;-2.298;2023-07-16T10:42:37;1.27;;;0.93;;
34896;SDS011;43407;51.828;-2.298;2023-07-16T10:45:05;1.00;;;0.60;;
34896;SDS011;43407;51.828;-2.298;2023-07-16T10:47:50;0.90;;;0.80;;
34896;SDS011;43407;51.828;-2.298;2023-07-16T10:50:18;1.95;;;0.70;;
34896;SDS011;43407;51.828;-2.298;2023-07-16T10:52:44;1.73;;;0.70;;
34896;SDS011;43407;51.828;-2.298;2023-07-16T10:55:10;0.55;;;0.50;;
34896;SDS011;43407;51.828;-2.298;2023-07-16T10:57:36;0.50;;;0.50;;
34896;SDS011;43407;51.828;-2.298;2023-07-16T11:00:01;0.68;;;0.68;;
34896;SDS011;43407;51.828;-2.298;2023-07-16T11:02:28;0.65;;;0.50;;
34896;SDS011;43407;51.828;-2.298;2023-07-16T11:04:54;0.98;;;0.60;;
34896;SDS011;43407;51.828;-2.298;2023-07-16T11:07:20;1.83;;;0.90;;
34896;SDS011;43407;51.828;-2.298;2023-07-16T11:09:46;1.33;;;0.60;;
34896;SDS011;43407;51.828;-2.298;2023-07-16T11:12:17;2.28;;;0.95;;
34896;SDS011;43407;51.828;-2.298;2023-07-16T11:14:52;2.83;;;1.10;;
34896;SDS011;43407;51.828;-2.298;2023-07-16T11:17:18;2.90;;;0.85;;
34896;SDS011;43407;51.828;-2.298;2023-07-16T11:19:45;2.45;;;1.00;;
34896;SDS011;43407;51.828;-2.298;2023-07-16T11:22:14;2.45;;;1.05;;
34896;SDS011;43407;51.828;-2.298;2023-07-16T11:24:45;3.22;;;1.60;;
34896;SDS011;43407;51.828;-2.298;2023-07-16T11:27:16;3.03;;;1.20;;
34896;SDS011;43407;51.828;-2.298;2023-07-16T11:29:50;2.85;;;1.00;;
34896;SDS011;43407;51.828;-2.298;2023-07-16T11:32:35;2.60;;;1.10;;
34896;SDS011;43407;51.828;-2.298;2023-07-16T11:35:05;2.95;;;1.13;;
34896;SDS011;43407;51.828;-2.298;2023-07-16T11:37:32;2.60;;;0.95;;
34896;SDS011;43407;51.828;-2.298;2023-07-16T11:40:00;2.53;;;1.15;;
34896;SDS011;43407;51.828;-2.298;2023-07-16T11:42:29;3.42;;;1.05;;
34896;SDS011;43407;51.828;-2.298;2023-07-16T11:45:02;4.50;;;1.17;;
34896;SDS011;43407;51.828;-2.298;2023-07-16T11:47:28;3.13;;;1.27;;
34896;SDS011;43407;51.828;-2.298;2023-07-16T11:49:54;2.92;;;1.00;;
34896;SDS011;43407;51.828;-2.298;2023-07-16T11:52:20;4.18;;;1.17;;
34896;SDS011;43407;51.828;-2.298;2023-07-16T11:54:48;2.13;;;0.93;;
34896;SDS011;43407;51.828;-2.298;2023-07-16T11:57:14;3.58;;;1.20;;
34896;SDS011;43407;51.828;-2.298;2023-07-16T11:59:40;2.95;;;1.25;;
34896;SDS011;43407;51.828;-2.298;2023-07-16T12:02:06;3.22;;;1.10;;
34896;SDS011;43407;51.828;-2.298;2023-07-16T12:04:32;6.07;;;1.40;;
34896;SDS011;43407;51.828;-2.298;2023-07-16T12:06:57;5.70;;;1.55;;
34896;SDS011;43407;51.828;-2.298;2023-07-16T12:09:23;3.47;;;1.23;;
34896;SDS011;43407;51.828;-2.298;2023-07-16T12:11:49;4.88;;;1.75;;
34896;SDS011;43407;51.828;-2.298;2023-07-16T12:14:14;4.00;;;1.50;;
34896;SDS011;43407;51.828;-2.298;2023-07-16T12:16:40;4.13;;;1.23;;
34896;SDS011;43407;51.828;-2.298;2023-07-16T12:19:07;5.10;;;1.60;;
34896;SDS011;43407;51.828;-2.298;2023-07-16T12:21:33;4.43;;;1.40;;
34896;SDS011;43407;51.828;-2.298;2023-07-16T12:23:59;7.03;;;1.90;;
34896;SDS011;43407;51.828;-2.298;2023-07-16T12:26:24;8.30;;;1.67;;
34896;SDS011;43407;51.828;-2.298;2023-07-16T12:28:50;5.70;;;1.50;;
34896;SDS011;43407;51.828;-2.298;2023-07-16T12:31:15;4.28;;;1.40;;
34896;SDS011;43407;51.828;-2.298;2023-07-16T12:33:45;6.03;;;1.40;;
34896;SDS011;43407;51.828;-2.298;2023-07-16T12:36:11;5.15;;;1.33;;
34896;SDS011;43407;51.828;-2.298;2023-07-16T12:38:36;6.30;;;1.90;;
34896;SDS011;43407;51.828;-2.298;2023-07-16T12:41:02;2.83;;;1.20;;
34896;SDS011;43407;51.828;-2.298;2023-07-16T12:43:28;6.10;;;1.50;;
34896;SDS011;43407;51.828;-2.298;2023-07-16T12:45:54;4.38;;;1.50;;
34896;SDS011;43407;51.828;-2.298;2023-07-16T12:48:19;2.95;;;1.23;;
34896;SDS011;43407;51.828;-2.298;2023-07-16T12:50:45;8.18;;;1.80;;
34896;SDS011;43407;51.828;-2.298;2023-07-16T12:53:11;4.22;;;1.30;;
34896;SDS011;43407;51.828;-2.298;2023-07-16T12:55:37;6.97;;;1.83;;
34896;SDS011;43407;51.828;-2.298;2023-07-16T12:58:03;4.38;;;1.65;;
34896;SDS011;43407;51.828;-2.298;2023-07-16T13:00:29;3.13;;;1.30;;
34896;SDS011;43407;51.828;-2.298;2023-07-16T13:02:54;4.57;;;1.75;;
34896;SDS011;43407;51.828;-2.298;2023-07-16T13:05:20;5.53;;;1.85;;
34896;SDS011;43407;51.828;-2.298;2023-07-16T13:07:46;6.20;;;1.90;;
34896;SDS011;43407;51.828;-2.298;2023-07-16T13:10:11;3.60;;;1.67;;
34896;SDS011;43407;51.828;-2.298;2023-07-16T13:12:37;4.43;;;1.50;;
34896;SDS011;43407;51.828;-2.298;2023-07-16T13:15:03;3.03;;;1.38;;
34896;SDS011;43407;51.828;-2.298;2023-07-16T13:17:29;4.50;;;1.40;;
34896;SDS011;43407;51.828;-2.298;2023-07-16T13:19:54;5.95;;;1.95;;
34896;SDS011;43407;51.828;-2.298;2023-07-16T13:22:20;6.95;;;1.70;;
34896;SDS011;43407;51.828;-2.298;2023-07-16T13:24:45;7.07;;;1.92;;
34896;SDS011;43407;51.828;-2.298;2023-07-16T13:27:19;4.97;;;1.50;;
34896;SDS011;43407;51.828;-2.298;2023-07-16T13:29:45;5.32;;;1.55;;
34896;SDS011;43407;51.828;-2.298;2023-07-16T13:32:11;5.65;;;1.50;;
34896;SDS011;43407;51.828;-2.298;2023-07-16T13:34:37;3.70;;;1.52;;
34896;SDS011;43407;51.828;-2.298;2023-07-16T13:37:03;4.47;;;1.35;;
34896;SDS011;43407;51.828;-2.298;2023-07-16T13:39:29;3.40;;;1.50;;
34896;SDS011;43407;51.828;-2.298;2023-07-16T13:41:54;6.75;;;1.83;;
34896;SDS011;43407;51.828;-2.298;2023-07-16T13:44:20;3.13;;;1.30;;
34896;SDS011;43407;51.828;-2.298;2023-07-16T13:46:46;8.05;;;1.92;;
34896;SDS011;43407;51.828;-2.298;2023-07-16T13:49:11;3.78;;;1.50;;
34896;SDS011;43407;51.828;-2.298;2023-07-16T13:51:37;4.95;;;1.70;;
34896;SDS011;43407;51.828;-2.298;2023-07-16T13:54:03;3.90;;;1.40;;
34896;SDS011;43407;51.828;-2.298;2023-07-16T13:56:29;5.10;;;1.50;;
34896;SDS011;43407;51.828;-2.298;2023-07-16T13:58:54;4.35;;;1.40;;
34896;SDS011;43407;51.828;-2.298;2023-07-16T14:01:21;2.08;;;1.35;;
34896;SDS011;43407;51.828;-2.298;2023-07-16T14:03:47;6.85;;;1.60;;
34896;SDS011;43407;51.828;-2.298;2023-07-16T14:06:12;4.75;;;1.70;;
34896;SDS011;43407;51.828;-2.298;2023-07-16T14:08:38;6.03;;;1.70;;
34896;SDS011;43407;51.828;-2.298;2023-07-16T14:11:04;5.07;;;1.90;;
34896;SDS011;43407;51.828;-2.298;2023-07-16T14:13:29;3.60;;;1.77;;
34896;SDS011;43407;51.828;-2.298;2023-07-16T14:15:55;5.47;;;2.38;;
34896;SDS011;43407;51.828;-2.298;2023-07-16T14:18:20;5.95;;;2.10;;
34896;SDS011;43407;51.828;-2.298;2023-07-16T14:20:46;4.15;;;1.70;;
34896;SDS011;43407;51.828;-2.298;2023-07-16T14:23:12;5.00;;;1.80;;
34896;SDS011;43407;51.828;-2.298;2023-07-16T14:25:37;5.38;;;1.98;;
34896;SDS011;43407;51.828;-2.298;2023-07-16T14:28:03;7.35;;;2.00;;
34896;SDS011;43407;51.828;-2.298;2023-07-16T14:30:29;3.75;;;1.88;;
34896;SDS011;43407;51.828;-2.298;2023-07-16T14:32:55;5.55;;;2.20;;